PWSweather.com
Personal Weather Stations
Station Observations
IMAZOWIE6
WarszawaPL

WarszawaPL

Lat: 52.27957, Lon: 21.05489

Elevation: 100

Station Type: WS1080

http://stacjapogody.waw.pl/

High Low Average
Temperature 38.8°F3.8°C 33.4°F0.8°C 35.6°F2.0°C
Dew Point 21.0°F-6.1°C 5.6°F-14.7°C 13.6°F-10.2°C
Winds 9.6 mph 15.4 kmh Calm Calm 3.0 mph N4.8 kmh N
Wind Gusts 15.6 mph25.1 kmh 1.4 mph2.3 kmh 7.0 mph11.3 kmh
Humidity 53% 29% 41%
Pressure 29.06 in984.1 mb 28.71 in972.2 mb -
Precipitation 0.00 in0.0 mm - -
Hour Temp Dew Point Humidity Winds Wind Gusts Pressure Precip Precip Rate Daily Precip Total
12:06 AM 34.5°F1.4°C 13.6°F-10.2°C 42% 4.0 mph N6.4 kmh N 7.4 mph11.9 kmh 29.06 in984.1 mb 0.01 in0.3 mm 0.12 in3.0 mm 0.01 in0.3 mm
12:21 AM 34.5°F1.4°C 14.1°F-9.9°C 43% 4.8 mph N7.7 kmh N 8.2 mph13.2 kmh 29.04 in983.4 mb 0.00 in0.0 mm 0.00 in0.0 mm 0.01 in0.3 mm
12:36 AM 34.5°F1.4°C 14.1°F-9.9°C 43% 4.0 mph N6.4 kmh N 7.4 mph11.9 kmh 29.03 in983.1 mb 0.01 in0.3 mm 0.05 in1.3 mm 0.02 in0.5 mm
12:51 AM 34.5°F1.4°C 14.6°F-9.7°C 44% 4.8 mph N7.7 kmh N 9.6 mph15.4 kmh 29.02 in982.7 mb 0.01 in0.3 mm 0.00 in0.0 mm 0.02 in0.5 mm
01:06 AM 34.3°F1.3°C 14.5°F-9.7°C 44% 5.4 mph N8.7 kmh N 8.2 mph13.2 kmh 29.01 in982.4 mb 0.01 in0.3 mm 0.00 in0.0 mm 0.02 in0.5 mm
01:21 AM 34.5°F1.4°C 15.2°F-9.3°C 45% 6.2 mph N10.0 kmh N 8.8 mph14.2 kmh 29.00 in982.1 mb 0.00 in0.0 mm 0.00 in0.0 mm 0.02 in0.5 mm
01:36 AM 34.5°F1.4°C 15.7°F-9.1°C 46% 9.6 mph N15.4 kmh N 15.6 mph25.1 kmh 28.99 in981.7 mb 0.00 in0.0 mm 0.00 in0.0 mm 0.02 in0.5 mm
01:51 AM 34.7°F1.5°C 16.3°F-8.7°C 47% 6.2 mph N10.0 kmh N 13.6 mph21.9 kmh 28.98 in981.4 mb 0.00 in0.0 mm 0.00 in0.0 mm 0.02 in0.5 mm
02:06 AM 34.9°F1.6°C 17.0°F-8.3°C 48% 4.0 mph N6.4 kmh N 8.8 mph14.2 kmh 28.97 in981.0 mb 0.00 in0.0 mm 0.00 in0.0 mm 0.02 in0.5 mm
02:21 AM 35.1°F1.7°C 17.1°F-8.3°C 48% 3.4 mph N5.5 kmh N 7.4 mph11.9 kmh 28.96 in980.7 mb 0.00 in0.0 mm 0.00 in0.0 mm 0.02 in0.5 mm
02:36 AM 35.1°F1.7°C 17.1°F-8.3°C 48% 5.4 mph N8.7 kmh N 10.2 mph16.4 kmh 28.95 in980.4 mb 0.01 in0.3 mm 0.05 in1.3 mm 0.04 in1.0 mm
02:51 AM 34.9°F1.6°C 17.0°F-8.3°C 48% 3.4 mph N5.5 kmh N 8.8 mph14.2 kmh 28.94 in980.0 mb 0.01 in0.3 mm 0.00 in0.0 mm 0.04 in1.0 mm
03:06 AM 34.9°F1.6°C 17.0°F-8.3°C 48% 4.8 mph N7.7 kmh N 8.2 mph13.2 kmh 28.94 in980.0 mb 0.01 in0.3 mm 0.00 in0.0 mm 0.04 in1.0 mm
03:21 AM 35.1°F1.7°C 17.1°F-8.3°C 48% 4.8 mph N7.7 kmh N 8.2 mph13.2 kmh 28.93 in979.7 mb 0.00 in0.0 mm 0.00 in0.0 mm 0.04 in1.0 mm
03:36 AM 35.4°F1.9°C 18.0°F-7.8°C 49% 5.4 mph N8.7 kmh N 8.2 mph13.2 kmh 28.92 in979.3 mb 0.00 in0.0 mm 0.00 in0.0 mm 0.04 in1.0 mm
03:51 AM 35.4°F1.9°C 18.0°F-7.8°C 49% 3.4 mph N5.5 kmh N 6.8 mph10.9 kmh 28.91 in979.0 mb 0.00 in0.0 mm 0.00 in0.0 mm 0.04 in1.0 mm
04:06 AM 35.4°F1.9°C 18.4°F-7.6°C 50% 4.0 mph N6.4 kmh N 8.8 mph14.2 kmh 28.90 in978.7 mb 0.00 in0.0 mm 0.00 in0.0 mm 0.04 in1.0 mm
04:21 AM 35.4°F1.9°C 18.4°F-7.6°C 50% 5.4 mph N8.7 kmh N 8.2 mph13.2 kmh 28.90 in978.7 mb 0.00 in0.0 mm 0.00 in0.0 mm 0.04 in1.0 mm
04:36 AM 35.2°F1.8°C 18.3°F-7.6°C 50% 3.4 mph N5.5 kmh N 6.2 mph10.0 kmh 28.89 in978.3 mb 0.00 in0.0 mm 0.00 in0.0 mm 0.04 in1.0 mm
04:51 AM 34.9°F1.6°C 17.9°F-7.8°C 50% 5.4 mph N8.7 kmh N 8.8 mph14.2 kmh 28.88 in978.0 mb 0.00 in0.0 mm 0.00 in0.0 mm 0.04 in1.0 mm
05:06 AM 34.9°F1.6°C 17.9°F-7.8°C 50% 3.4 mph N5.5 kmh N 6.2 mph10.0 kmh 28.88 in978.0 mb 0.00 in0.0 mm 0.00 in0.0 mm 0.04 in1.0 mm
05:21 AM 34.7°F1.5°C 17.8°F-7.9°C 50% 3.4 mph N5.5 kmh N 6.2 mph10.0 kmh 28.87 in977.7 mb 0.01 in0.3 mm 0.05 in1.3 mm 0.05 in1.3 mm
05:36 AM 34.5°F1.4°C 17.6°F-8.0°C 50% 2.0 mph N3.2 kmh N 4.8 mph7.7 kmh 28.87 in977.7 mb 0.01 in0.3 mm 0.00 in0.0 mm 0.05 in1.3 mm
05:51 AM 34.7°F1.5°C 17.8°F-7.9°C 50% 4.0 mph N6.4 kmh N 8.2 mph13.2 kmh 28.86 in977.3 mb 0.01 in0.3 mm 0.00 in0.0 mm 0.05 in1.3 mm
06:06 AM 34.9°F1.6°C 17.9°F-7.8°C 50% 4.0 mph N6.4 kmh N 6.8 mph10.9 kmh 28.86 in977.3 mb 0.01 in0.3 mm 0.00 in0.0 mm 0.05 in1.3 mm
06:21 AM 35.2°F1.8°C 19.2°F-7.1°C 52% 3.4 mph N5.5 kmh N 6.8 mph10.9 kmh 28.84 in976.6 mb 0.00 in0.0 mm 0.00 in0.0 mm 0.05 in1.3 mm
06:36 AM 35.6°F2.0°C 20.0°F-6.7°C 53% 4.0 mph N6.4 kmh N 7.4 mph11.9 kmh 28.84 in976.6 mb 0.00 in0.0 mm 0.00 in0.0 mm 0.05 in1.3 mm
06:51 AM 35.8°F2.1°C 20.1°F-6.6°C 53% 5.4 mph N8.7 kmh N 10.2 mph16.4 kmh 28.84 in976.6 mb 0.00 in0.0 mm 0.00 in0.0 mm 0.05 in1.3 mm
07:06 AM 35.6°F2.0°C 20.0°F-6.7°C 53% 4.0 mph N6.4 kmh N 8.8 mph14.2 kmh 28.84 in976.6 mb 0.00 in0.0 mm 0.00 in0.0 mm 0.05 in1.3 mm
07:21 AM 35.6°F2.0°C 20.0°F-6.7°C 53% 2.0 mph N3.2 kmh N 4.8 mph7.7 kmh 28.84 in976.6 mb 0.00 in0.0 mm 0.00 in0.0 mm 0.05 in1.3 mm
07:36 AM 35.6°F2.0°C 20.0°F-6.7°C 53% 1.4 mph N2.3 kmh N 4.0 mph6.4 kmh 28.85 in977.0 mb 0.00 in0.0 mm 0.00 in0.0 mm 0.05 in1.3 mm
07:51 AM 35.4°F1.9°C 19.8°F-6.8°C 53% 2.8 mph N4.5 kmh N 6.8 mph10.9 kmh 28.84 in976.6 mb 0.01 in0.3 mm 0.05 in1.3 mm 0.06 in1.5 mm
08:06 AM 35.4°F1.9°C 19.8°F-6.8°C 53% 2.8 mph N4.5 kmh N 6.8 mph10.9 kmh 28.84 in976.6 mb 0.01 in0.3 mm 0.00 in0.0 mm 0.06 in1.5 mm
08:21 AM 35.4°F1.9°C 19.8°F-6.8°C 53% 2.0 mph N3.2 kmh N 4.0 mph6.4 kmh 28.85 in977.0 mb 0.00 in0.0 mm 0.00 in0.0 mm 0.06 in1.5 mm
08:36 AM 35.4°F1.9°C 19.8°F-6.8°C 53% 4.8 mph N7.7 kmh N 7.4 mph11.9 kmh 28.85 in977.0 mb 0.00 in0.0 mm 0.00 in0.0 mm 0.06 in1.5 mm
08:51 AM 35.8°F2.1°C 20.1°F-6.6°C 53% 3.4 mph N5.5 kmh N 6.2 mph10.0 kmh 28.85 in977.0 mb 0.00 in0.0 mm 0.00 in0.0 mm 0.06 in1.5 mm
09:06 AM 35.8°F2.1°C 20.1°F-6.6°C 53% 4.0 mph N6.4 kmh N 6.8 mph10.9 kmh 28.84 in976.6 mb 0.00 in0.0 mm 0.00 in0.0 mm 0.06 in1.5 mm
09:21 AM 36.0°F2.2°C 20.3°F-6.5°C 53% 4.0 mph N6.4 kmh N 6.2 mph10.0 kmh 28.84 in976.6 mb 0.00 in0.0 mm 0.00 in0.0 mm 0.06 in1.5 mm
09:36 AM 36.3°F2.4°C 20.6°F-6.3°C 53% 4.0 mph N6.4 kmh N 8.2 mph13.2 kmh 28.84 in976.6 mb 0.00 in0.0 mm 0.00 in0.0 mm 0.06 in1.5 mm
09:51 AM 37.2°F2.9°C 21.0°F-6.1°C 52% 6.2 mph N10.0 kmh N 10.2 mph16.4 kmh 28.85 in977.0 mb 0.00 in0.0 mm 0.00 in0.0 mm 0.06 in1.5 mm
10:06 AM 36.9°F2.7°C 20.2°F-6.6°C 51% 2.8 mph N4.5 kmh N 4.8 mph7.7 kmh 28.85 in977.0 mb 0.00 in0.0 mm 0.00 in0.0 mm 0.06 in1.5 mm
10:21 AM 36.7°F2.6°C 19.1°F-7.2°C 49% 2.8 mph N4.5 kmh N 5.4 mph8.7 kmh 28.85 in977.0 mb 0.00 in0.0 mm 0.00 in0.0 mm 0.06 in1.5 mm
10:36 AM 36.9°F2.7°C 18.3°F-7.6°C 47% 3.4 mph N5.5 kmh N 6.8 mph10.9 kmh 28.84 in976.6 mb 0.00 in0.0 mm 0.00 in0.0 mm 0.06 in1.5 mm
10:51 AM 37.8°F3.2°C 19.1°F-7.2°C 47% 2.8 mph N4.5 kmh N 5.4 mph8.7 kmh 28.83 in976.3 mb 0.00 in0.0 mm 0.00 in0.0 mm 0.06 in1.5 mm
11:06 AM 38.5°F3.6°C 19.3°F-7.1°C 46% 6.2 mph N10.0 kmh N 8.8 mph14.2 kmh 28.82 in976.0 mb 0.00 in0.0 mm 0.00 in0.0 mm 0.06 in1.5 mm
11:21 AM 38.7°F3.7°C 17.9°F-7.8°C 43% 4.0 mph N6.4 kmh N 6.8 mph10.9 kmh 28.82 in976.0 mb 0.00 in0.0 mm 0.00 in0.0 mm 0.06 in1.5 mm
11:36 AM 38.5°F3.6°C 16.0°F-8.9°C 40% 4.8 mph N7.7 kmh N 7.4 mph11.9 kmh 28.81 in975.6 mb 0.00 in0.0 mm 0.00 in0.0 mm 0.06 in1.5 mm
11:51 AM 38.8°F3.8°C 15.2°F-9.3°C 38% 4.0 mph N6.4 kmh N 8.8 mph14.2 kmh 28.81 in975.6 mb 0.00 in0.0 mm 0.00 in0.0 mm 0.06 in1.5 mm
12:06 PM 38.3°F3.5°C 12.8°F-10.7°C 35% 4.0 mph N6.4 kmh N 6.8 mph10.9 kmh 28.80 in975.3 mb 0.00 in0.0 mm 0.00 in0.0 mm 0.06 in1.5 mm
12:21 PM 37.4°F3.0°C 10.7°F-11.8°C 33% 2.8 mph N4.5 kmh N 6.8 mph10.9 kmh 28.79 in974.9 mb 0.00 in0.0 mm 0.00 in0.0 mm 0.06 in1.5 mm
12:36 PM 37.0°F2.8°C 11.0°F-11.7°C 34% 6.8 mph N10.9 kmh N 15.6 mph25.1 kmh 28.78 in974.6 mb 0.00 in0.0 mm 0.00 in0.0 mm 0.06 in1.5 mm
12:51 PM 36.9°F2.7°C 10.9°F-11.7°C 34% 4.0 mph N6.4 kmh N 8.2 mph13.2 kmh 28.77 in974.3 mb 0.00 in0.0 mm 0.00 in0.0 mm 0.06 in1.5 mm
01:06 PM 36.7°F2.6°C 10.7°F-11.8°C 34% 4.0 mph N6.4 kmh N 6.2 mph10.0 kmh 28.77 in974.3 mb 0.00 in0.0 mm 0.00 in0.0 mm 0.06 in1.5 mm
01:21 PM 36.9°F2.7°C 10.9°F-11.7°C 34% 4.8 mph N7.7 kmh N 8.2 mph13.2 kmh 28.77 in974.3 mb 0.00 in0.0 mm 0.00 in0.0 mm 0.06 in1.5 mm
01:36 PM 37.0°F2.8°C 11.0°F-11.7°C 34% 3.4 mph N5.5 kmh N 6.2 mph10.0 kmh 28.76 in973.9 mb 0.00 in0.0 mm 0.00 in0.0 mm 0.06 in1.5 mm
01:51 PM 37.2°F2.9°C 11.2°F-11.6°C 34% 4.0 mph N6.4 kmh N 8.2 mph13.2 kmh 28.75 in973.6 mb 0.00 in0.0 mm 0.00 in0.0 mm 0.06 in1.5 mm
02:06 PM 36.7°F2.6°C 10.7°F-11.8°C 34% 2.8 mph N4.5 kmh N 6.2 mph10.0 kmh 28.74 in973.2 mb 0.00 in0.0 mm 0.00 in0.0 mm 0.06 in1.5 mm
02:21 PM 36.3°F2.4°C 10.4°F-12.0°C 34% 5.4 mph N8.7 kmh N 10.2 mph16.4 kmh 28.74 in973.2 mb 0.01 in0.3 mm 0.05 in1.3 mm 0.07 in1.8 mm
02:36 PM 36.7°F2.6°C 10.7°F-11.8°C 34% 6.2 mph N10.0 kmh N 8.8 mph14.2 kmh 28.74 in973.2 mb 0.01 in0.3 mm 0.00 in0.0 mm 0.07 in1.8 mm
02:51 PM 36.9°F2.7°C 10.9°F-11.7°C 34% 2.8 mph N4.5 kmh N 5.4 mph8.7 kmh 28.74 in973.2 mb 0.01 in0.3 mm 0.00 in0.0 mm 0.07 in1.8 mm
03:06 PM 37.0°F2.8°C 11.0°F-11.7°C 34% 3.4 mph N5.5 kmh N 7.4 mph11.9 kmh 28.74 in973.2 mb 0.01 in0.3 mm 0.00 in0.0 mm 0.07 in1.8 mm
03:21 PM 37.2°F2.9°C 11.2°F-11.6°C 34% 3.4 mph N5.5 kmh N 6.8 mph10.9 kmh 28.74 in973.2 mb 0.00 in0.0 mm 0.00 in0.0 mm 0.07 in1.8 mm
03:36 PM 37.2°F2.9°C 10.5°F-11.9°C 33% 3.4 mph N5.5 kmh N 6.2 mph10.0 kmh 28.74 in973.2 mb 0.00 in0.0 mm 0.00 in0.0 mm 0.07 in1.8 mm
03:51 PM 36.7°F2.6°C 10.0°F-12.2°C 33% 5.4 mph N8.7 kmh N 7.4 mph11.9 kmh 28.73 in972.9 mb 0.00 in0.0 mm 0.00 in0.0 mm 0.07 in1.8 mm
04:06 PM 36.1°F2.3°C 8.9°F-12.8°C 32% 4.8 mph N7.7 kmh N 8.8 mph14.2 kmh 28.73 in972.9 mb 0.00 in0.0 mm 0.00 in0.0 mm 0.07 in1.8 mm
04:21 PM 35.4°F1.9°C 8.2°F-13.2°C 32% 5.4 mph N8.7 kmh N 8.8 mph14.2 kmh 28.73 in972.9 mb 0.00 in0.0 mm 0.00 in0.0 mm 0.07 in1.8 mm
04:36 PM 35.1°F1.7°C 8.6°F-13.0°C 33% 3.4 mph N5.5 kmh N 6.2 mph10.0 kmh 28.72 in972.6 mb 0.00 in0.0 mm 0.00 in0.0 mm 0.07 in1.8 mm
04:51 PM 34.9°F1.6°C 8.5°F-13.1°C 33% 3.4 mph N5.5 kmh N 6.2 mph10.0 kmh 28.72 in972.6 mb 0.00 in0.0 mm 0.00 in0.0 mm 0.07 in1.8 mm
05:06 PM 34.9°F1.6°C 9.1°F-12.7°C 34% 3.4 mph N5.5 kmh N 8.2 mph13.2 kmh 28.72 in972.6 mb 0.00 in0.0 mm 0.00 in0.0 mm 0.07 in1.8 mm
05:21 PM 34.9°F1.6°C 9.1°F-12.7°C 34% 4.8 mph N7.7 kmh N 7.4 mph11.9 kmh 28.72 in972.6 mb 0.00 in0.0 mm 0.00 in0.0 mm 0.07 in1.8 mm
05:36 PM 34.9°F1.6°C 9.1°F-12.7°C 34% 4.0 mph N6.4 kmh N 9.6 mph15.4 kmh 28.71 in972.2 mb 0.00 in0.0 mm 0.00 in0.0 mm 0.07 in1.8 mm
05:51 PM 34.9°F1.6°C 9.8°F-12.3°C 35% 4.8 mph N7.7 kmh N 8.2 mph13.2 kmh 28.71 in972.2 mb 0.00 in0.0 mm 0.00 in0.0 mm 0.07 in1.8 mm
06:06 PM 34.9°F1.6°C 9.8°F-12.3°C 35% 4.0 mph N6.4 kmh N 8.2 mph13.2 kmh 28.71 in972.2 mb 0.00 in0.0 mm 0.00 in0.0 mm 0.07 in1.8 mm
06:21 PM 34.9°F1.6°C 9.8°F-12.3°C 35% 2.8 mph N4.5 kmh N 5.4 mph8.7 kmh 28.72 in972.6 mb 0.00 in0.0 mm 0.00 in0.0 mm 0.07 in1.8 mm
06:36 PM 34.9°F1.6°C 10.4°F-12.0°C 36% 2.8 mph N4.5 kmh N 6.2 mph10.0 kmh 28.74 in973.2 mb 0.00 in0.0 mm 0.00 in0.0 mm 0.07 in1.8 mm
06:51 PM 35.1°F1.7°C 10.6°F-11.9°C 36% 0.6 mph N1.0 kmh N 2.8 mph4.5 kmh 28.74 in973.2 mb 0.00 in0.0 mm 0.00 in0.0 mm 0.07 in1.8 mm
07:06 PM 35.1°F1.7°C 10.6°F-11.9°C 36% 1.4 mph N2.3 kmh N 5.4 mph8.7 kmh 28.75 in973.6 mb 0.00 in0.0 mm 0.00 in0.0 mm 0.07 in1.8 mm
07:21 PM 35.1°F1.7°C 9.9°F-12.3°C 35% 2.0 mph N3.2 kmh N 4.0 mph6.4 kmh 28.76 in973.9 mb 0.01 in0.3 mm 0.05 in1.3 mm 0.09 in2.3 mm
07:36 PM 35.1°F1.7°C 9.9°F-12.3°C 35% 1.4 mph N2.3 kmh N 5.4 mph8.7 kmh 28.77 in974.3 mb 0.01 in0.3 mm 0.00 in0.0 mm 0.09 in2.3 mm
07:51 PM 35.1°F1.7°C 9.3°F-12.6°C 34% 1.4 mph N2.3 kmh N 2.0 mph3.2 kmh 28.77 in974.3 mb 0.01 in0.3 mm 0.00 in0.0 mm 0.09 in2.3 mm
08:06 PM 34.9°F1.6°C 9.1°F-12.7°C 34% 3.4 mph N5.5 kmh N 6.8 mph10.9 kmh 28.78 in974.6 mb 0.01 in0.3 mm 0.00 in0.0 mm 0.09 in2.3 mm
08:21 PM 34.9°F1.6°C 9.1°F-12.7°C 34% Calm Calm 2.0 mph3.2 kmh 28.79 in974.9 mb 0.00 in0.0 mm 0.00 in0.0 mm 0.09 in2.3 mm
08:36 PM 34.9°F1.6°C 9.1°F-12.7°C 34% Calm Calm 1.4 mph2.3 kmh 28.79 in974.9 mb 0.00 in0.0 mm 0.00 in0.0 mm 0.09 in2.3 mm
08:51 PM 34.9°F1.6°C 9.1°F-12.7°C 34% Calm Calm 2.8 mph4.5 kmh 28.80 in975.3 mb 0.00 in0.0 mm 0.00 in0.0 mm 0.09 in2.3 mm
09:06 PM 35.2°F1.8°C 9.4°F-12.6°C 34% Calm Calm 1.4 mph2.3 kmh 28.81 in975.6 mb 0.00 in0.0 mm 0.00 in0.0 mm 0.09 in2.3 mm
09:21 PM 35.2°F1.8°C 8.8°F-12.9°C 33% 0.6 mph N1.0 kmh N 4.0 mph6.4 kmh 28.82 in976.0 mb 0.00 in0.0 mm 0.00 in0.0 mm 0.09 in2.3 mm
09:36 PM 35.2°F1.8°C 7.4°F-13.7°C 31% 2.8 mph N4.5 kmh N 6.2 mph10.0 kmh 28.83 in976.3 mb 0.00 in0.0 mm 0.00 in0.0 mm 0.09 in2.3 mm
09:51 PM 35.2°F1.8°C 6.7°F-14.1°C 30% 2.8 mph N4.5 kmh N 5.4 mph8.7 kmh 28.84 in976.6 mb 0.00 in0.0 mm 0.00 in0.0 mm 0.09 in2.3 mm
10:06 PM 35.1°F1.7°C 6.5°F-14.2°C 30% 3.4 mph N5.5 kmh N 6.2 mph10.0 kmh 28.84 in976.6 mb 0.00 in0.0 mm 0.00 in0.0 mm 0.09 in2.3 mm
10:21 PM 34.9°F1.6°C 5.6°F-14.7°C 29% 1.4 mph N2.3 kmh N 4.0 mph6.4 kmh 28.85 in977.0 mb 0.00 in0.0 mm 0.00 in0.0 mm 0.09 in2.3 mm
10:36 PM 34.2°F1.2°C 5.7°F-14.6°C 30% 2.0 mph N3.2 kmh N 3.4 mph5.5 kmh 28.86 in977.3 mb 0.00 in0.0 mm 0.00 in0.0 mm 0.09 in2.3 mm
10:51 PM 34.2°F1.2°C 5.7°F-14.6°C 30% 1.4 mph N2.3 kmh N 2.0 mph3.2 kmh 28.87 in977.7 mb 0.00 in0.0 mm 0.00 in0.0 mm 0.09 in2.3 mm
11:06 PM 34.2°F1.2°C 5.7°F-14.6°C 30% 0.6 mph N1.0 kmh N 2.8 mph4.5 kmh 28.88 in978.0 mb 0.00 in0.0 mm 0.00 in0.0 mm 0.09 in2.3 mm
11:21 PM 34.0°F1.1°C 5.6°F-14.7°C 30% 0.6 mph N1.0 kmh N 2.0 mph3.2 kmh 28.89 in978.3 mb 0.00 in0.0 mm 0.00 in0.0 mm 0.09 in2.3 mm
11:36 PM 33.8°F1.0°C 6.1°F-14.4°C 31% Calm Calm 2.0 mph3.2 kmh 28.90 in978.7 mb 0.00 in0.0 mm 0.00 in0.0 mm 0.09 in2.3 mm
11:51 PM 33.4°F0.8°C 5.8°F-14.6°C 31% 0.6 mph N1.0 kmh N 1.4 mph2.3 kmh 28.91 in979.0 mb 0.00 in0.0 mm 0.00 in0.0 mm 0.09 in2.3 mm